Terminal Aerodrome Forecast
Issued by NWS

Home | Current Version | Previous Version | Text Only | Print | Product List | Glossary On
Versions: 1 2 3 4 5 6 7 8 9 10 11 12 13
018
FTUS42 KMHX 241720
TAFOAJ
TAF
KOAJ 241720Z 2418/2518 20006G17KT P6SM FEW050
     FM250300 VRB03KT P6SM SKC
     FM251400 20007KT P6SM FEW025
      AMD LTD TO CLD VIS AND WIND=

USA.gov is the U.S. government's official web portal to all federal, state and local government web resources and services.